Time;durP1;ratioP1;P1;durP2;ratioP2;P2;SDS_P1;SDS_P2;PMS_P1;PMS_P2;Temp;Humidity;BMP_temperature;BMP_pressure;BME280_temperature;BME280_humidity;BME280_pressure;Samples;Min_cycle;Max_cycle;Signal;HPM_P1;HPM_P2
2022/07/11 00:00:53;;;;;;;;;;;;;;;16.09;52.26;101647.97;5066441;28;20356;-55
2022/07/11 00:03:19;;;;;;;;;;;;;;;16.09;52.23;101650.63;5067729;28;19928;-52
2022/07/11 00:05:44;;;;;;;;;;;;;;;16.07;52.28;101643.69;5061742;28;19926;-54
2022/07/11 00:08:09;;;;;;;;;;;;;;;16.11;52.29;101651.34;5065297;28;20426;-53
2022/07/11 00:10:35;;;;;;;;;;;;;;;16.12;52.30;101637.13;5065962;28;20480;-54
2022/07/11 00:13:00;;;;;;;;;;;;;;;16.11;52.47;101640.72;5070425;28;19946;-55
2022/07/11 00:15:26;;;;;;;;;;;;;;;16.11;52.65;101640.72;5062225;28;19921;-55
2022/07/11 00:17:51;;;;;;;;;;;;;;;16.11;52.71;101650.50;5070484;28;19939;-53
2022/07/11 00:20:16;;;;;;;;;;;;;;;16.10;52.79;101649.66;5066599;28;20070;-53
2022/07/11 00:22:42;;;;;;;;;;;;;;;16.11;53.03;101648.69;5067679;28;20394;-54
2022/07/11 00:25:07;;;;;;;;;;;;;;;16.09;53.01;101645.31;5059979;28;19928;-55
2022/07/11 00:27:33;;;;;;;;;;;;;;;16.09;53.33;101647.97;5070017;28;19924;-55
2022/07/11 00:29:58;;;;;;;;;;;;;;;16.10;53.39;101651.47;5065743;28;19920;-54
2022/07/11 00:32:23;;;;;;;;;;;;;;;16.09;53.32;101645.31;5066292;28;19924;-58
2022/07/11 00:34:48;;;;;;;;;;;;;;;16.04;53.88;101639.44;5064316;28;19920;-55
2022/07/11 00:37:14;;;;;;;;;;;;;;;16.03;54.06;101643.06;5063296;28;19916;-51
2022/07/11 00:39:39;;;;;;;;;;;;;;;16.05;54.06;101635.84;5073011;28;19928;-51
2022/07/11 00:42:05;;;;;;;;;;;;;;;16.09;53.96;101637.34;5069410;28;19926;-53
2022/07/11 00:44:30;;;;;;;;;;;;;;;16.10;54.12;101640.84;5062667;28;20511;-51
2022/07/11 00:46:55;;;;;;;;;;;;;;;16.07;54.31;101636.59;5069769;28;19935;-51
2022/07/11 00:49:21;;;;;;;;;;;;;;;16.03;54.58;101637.75;5066903;28;20375;-51
2022/07/11 00:51:47;;;;;;;;;;;;;;;16.03;54.64;101643.06;5066460;28;19939;-51
2022/07/11 00:54:14;;;;;;;;;;;;;;;16.04;54.74;101635.94;5062412;28;19920;-51
2022/07/11 00:56:40;;;;;;;;;;;;;;;16.02;55.03;101636.03;5063638;28;19916;-51
2022/07/11 00:59:08;;;;;;;;;;;;;;;16.02;54.99;101636.03;5070452;28;20054;-52
2022/07/11 01:01:36;;;;;;;;;;;;;;;16.05;55.08;101633.19;5068868;28;20010;-51
2022/07/11 01:04:02;;;;;;;;;;;;;;;16.08;54.91;101634.78;5067725;28;19924;-52
2022/07/11 01:06:27;;;;;;;;;;;;;;;16.13;55.06;101645.94;5066548;28;20306;-51
2022/07/11 01:08:53;;;;;;;;;;;;;;;16.14;54.95;101640.53;5066110;28;22180;-51
2022/07/11 01:11:18;;;;;;;;;;;;;;;16.14;55.14;101640.53;5063329;28;19920;-55
2022/07/11 01:13:44;;;;;;;;;;;;;;;16.13;55.12;101638.81;5061447;28;19921;-54
2022/07/11 01:16:16;;;;;;;;;;;;;;;16.16;55.17;101635.13;5063802;28;19946;-54
2022/07/11 01:18:42;;;;;;;;;;;;;;;16.20;55.11;101639.25;5069323;28;19975;-53
2022/07/11 01:21:21;;;;;;;;;;;;;;;16.28;55.20;101641.41;5069075;28;20559;-52
2022/07/11 01:23:50;;;;;;;;;;;;;;;16.30;55.19;101639.50;5062072;28;19946;-52
2022/07/11 01:26:16;;;;;;;;;;;;;;;16.29;55.07;101643.97;5060998;28;20379;-53
2022/07/11 01:28:41;;;;;;;;;;;;;;;16.28;55.27;101636.94;5074163;28;19922;-55
2022/07/11 01:31:06;;;;;;;;;;;;;;;16.27;55.31;101639.69;5064634;28;19916;-53
2022/07/11 01:33:35;;;;;;;;;;;;;;;16.30;55.42;101637.69;5061091;28;19929;-52
2022/07/11 01:36:03;;;;;;;;;;;;;;;16.30;55.43;101635.03;5066281;28;19956;-55
2022/07/11 01:38:28;;;;;;;;;;;;;;;16.27;55.61;101631.72;5067051;28;20002;-53
2022/07/11 01:40:54;;;;;;;;;;;;;;;16.28;55.77;101625.47;5065083;28;19928;-51
2022/07/11 01:43:19;;;;;;;;;;;;;;;16.30;55.71;101626.22;5066327;28;19928;-52
2022/07/11 01:45:45;;;;;;;;;;;;;;;16.32;55.70;101615.50;5065383;28;20007;-54
2022/07/11 01:48:10;;;;;;;;;;;;;;;16.29;55.89;101625.38;5066588;28;19950;-56
2022/07/11 01:50:35;;;;;;;;;;;;;;;16.24;56.10;101630.13;5064403;28;20679;-53
2022/07/11 01:53:01;;;;;;;;;;;;;;;16.24;56.25;101626.66;5064660;28;19925;-51
2022/07/11 01:55:27;;;;;;;;;;;;;;;16.20;56.26;101619.84;5065354;28;20306;-52
2022/07/11 01:57:52;;;;;;;;;;;;;;;16.20;56.33;101630.47;5066167;28;20520;-51
2022/07/11 02:00:18;;;;;;;;;;;;;;;16.21;56.40;101634.81;5058686;28;19931;-52
2022/07/11 02:02:43;;;;;;;;;;;;;;;16.19;56.38;101624.28;5063005;28;20375;-52
2022/07/11 02:05:08;;;;;;;;;;;;;;;16.19;56.37;101632.25;5062672;28;19920;-51
2022/07/11 02:10:17;;;;;;;;;;;;;;;16.17;56.40;101639.50;5060850;28;19931;-54
2022/07/11 02:12:43;;;;;;;;;;;;;;;16.15;56.49;101636.91;5062327;28;19916;-56
2022/07/11 02:15:08;;;;;;;;;;;;;;;16.11;56.56;101638.06;5056941;28;19924;-56
2022/07/11 02:17:33;;;;;;;;;;;;;;;16.07;56.85;101628.63;5063972;28;19929;-60
2022/07/11 02:19:59;;;;;;;;;;;;;;;16.03;56.96;101627.13;5065847;28;19925;-55
2022/07/11 02:22:24;;;;;;;;;;;;;;;15.99;56.94;101628.28;5061259;28;19924;-57
2022/07/11 02:24:50;;;;;;;;;;;;;;;15.98;57.15;101629.22;5060596;28;20156;-55
2022/07/11 02:27:15;;;;;;;;;;;;;;;15.96;57.31;101632.00;5063685;28;19947;-55
2022/07/11 02:29:40;;;;;;;;;;;;;;;15.97;57.38;101633.69;5073350;28;20446;-56
2022/07/11 02:32:06;;;;;;;;;;;;;;;15.95;57.32;101638.25;5060801;28;19916;-52
2022/07/11 02:34:31;;;;;;;;;;;;;;;15.94;57.53;101635.72;5064693;28;19924;-56
2022/07/11 02:36:56;;;;;;;;;;;;;;;15.93;57.53;101636.66;5068201;28;19920;-53
2022/07/11 02:39:21;;;;;;;;;;;;;;;15.87;57.87;101634.41;5067598;28;19928;-56
2022/07/11 02:41:47;;;;;;;;;;;;;;;15.81;57.96;101635.63;5063897;28;19973;-55
2022/07/11 02:44:12;;;;;;;;;;;;;;;15.78;58.08;101642.00;5073994;28;19920;-59
2022/07/11 02:46:37;;;;;;;;;;;;;;;15.73;58.14;101636.13;5069926;28;19924;-56
2022/07/11 02:49:03;;;;;;;;;;;;;;;15.72;58.18;101645.03;5066244;28;19935;-54
2022/07/11 02:51:28;;;;;;;;;;;;;;;15.67;58.37;101647.13;5066385;28;19925;-58
2022/07/11 02:53:54;;;;;;;;;;;;;;;15.65;58.44;101644.59;5063198;28;19920;-58
2022/07/11 02:56:19;;;;;;;;;;;;;;;15.63;58.39;101641.19;5062002;28;20360;-56
2022/07/11 02:58:44;;;;;;;;;;;;;;;15.62;58.46;101636.00;5070743;28;19978;-58
2022/07/11 03:01:09;;;;;;;;;;;;;;;15.57;58.69;101636.28;5058702;28;19951;-52
2022/07/11 03:03:36;;;;;;;;;;;;;;;15.54;58.72;101632.03;5053472;28;20385;-56
2022/07/11 03:06:01;;;;;;;;;;;;;;;15.53;58.86;101632.13;5061433;28;20011;-56
2022/07/11 03:08:26;;;;;;;;;;;;;;;15.53;58.94;101627.66;5064965;28;20563;-56
2022/07/11 03:10:51;;;;;;;;;;;;;;;15.50;59.07;101627.84;5067730;28;21225;-53
2022/07/11 03:13:17;;;;;;;;;;;;;;;15.47;59.25;101625.44;5066693;28;19924;-56
2022/07/11 03:15:42;;;;;;;;;;;;;;;15.45;59.33;101627.31;5070613;28;19920;-55
2022/07/11 03:18:07;;;;;;;;;;;;;;;15.42;59.42;101638.13;5067284;28;20268;-54
2022/07/11 03:20:33;;;;;;;;;;;;;;;15.39;59.48;101633.00;5066576;28;19979;-55
2022/07/11 03:22:58;;;;;;;;;;;;;;;15.37;59.74;101634.91;5064404;28;19923;-56
2022/07/11 03:25:23;;;;;;;;;;;;;;;15.38;59.63;101641.91;5071275;28;20022;-53
2022/07/11 03:27:49;;;;;;;;;;;;;;;15.38;59.69;101636.59;5067142;28;19928;-54
2022/07/11 03:30:14;;;;;;;;;;;;;;;15.35;59.76;101636.81;5065309;28;19982;-52
2022/07/11 03:32:43;;;;;;;;;;;;;;;15.34;59.96;101640.44;5067490;28;19920;-53
2022/07/11 03:37:52;;;;;;;;;;;;;;;15.35;60.00;101642.13;5067397;28;19934;-51
2022/07/11 03:40:17;;;;;;;;;;;;;;;15.33;60.13;101636.91;5067090;28;20019;-52
2022/07/11 03:42:43;;;;;;;;;;;;;;;15.34;60.21;101637.78;5064279;28;20286;-51
2022/07/11 03:45:09;;;;;;;;;;;;;;;15.37;60.17;101645.50;5065509;28;19928;-53
2022/07/11 03:47:34;;;;;;;;;;;;;;;15.36;60.50;101628.75;5064097;28;20387;-51
2022/07/11 03:50:00;;;;;;;;;;;;;;;15.36;60.42;101638.50;5066326;28;19956;-53
2022/07/11 03:52:25;;;;;;;;;;;;;;;15.37;60.57;101633.13;5069972;28;19917;-52
2022/07/11 03:54:51;;;;;;;;;;;;;;;15.41;60.48;101636.41;5067095;28;19928;-55
2022/07/11 03:57:16;;;;;;;;;;;;;;;15.43;60.47;101639.00;5056871;28;20354;-51
2022/07/11 03:59:41;;;;;;;;;;;;;;;15.44;60.59;101646.84;5062471;28;19943;-51
2022/07/11 04:02:07;;;;;;;;;;;;;;;15.47;60.52;101641.34;5068669;28;19928;-52
2022/07/11 04:04:32;;;;;;;;;;;;;;;15.50;60.43;101635.81;5066396;28;19959;-52
2022/07/11 04:06:57;;;;;;;;;;;;;;;15.51;60.38;101640.16;5066950;28;19922;-54
2022/07/11 04:09:24;;;;;;;;;;;;;;;15.50;60.76;101645.59;5068980;28;19923;-52
2022/07/11 04:11:50;;;;;;;;;;;;;;;15.47;60.96;101641.34;5067112;28;19928;-52
2022/07/11 04:14:15;;;;;;;;;;;;;;;15.45;61.22;101643.22;5067916;28;20058;-55
2022/07/11 04:16:40;;;;;;;;;;;;;;;15.46;61.07;101655.56;5065521;28;20547;-52
2022/07/11 04:19:06;;;;;;;;;;;;;;;15.49;61.34;101657.13;5067025;28;20300;-51
2022/07/11 04:21:31;;;;;;;;;;;;;;;15.50;61.35;101657.03;5062988;28;19983;-55
2022/07/11 04:23:56;;;;;;;;;;;;;;;15.51;61.45;101644.63;5068767;28;19920;-55
2022/07/11 04:26:22;;;;;;;;;;;;;;;15.56;61.44;101655.81;5069164;28;19916;-54
2022/07/11 04:28:47;;;;;;;;;;;;;;;15.57;61.64;101661.97;5062104;28;20408;-51
2022/07/11 04:31:12;;;;;;;;;;;;;;;15.57;61.62;101651.34;5053104;28;19972;-54
2022/07/11 04:33:37;;;;;;;;;;;;;;;15.58;61.65;101651.22;5055651;28;19966;-54
2022/07/11 04:36:03;;;;;;;;;;;;;;;15.61;61.70;101658.16;5065753;28;20000;-52
2022/07/11 04:38:29;;;;;;;;;;;;;;;15.61;61.76;101663.47;5067288;28;19952;-52
2022/07/11 04:40:54;;;;;;;;;;;;;;;15.63;61.81;101656.25;5063707;28;19970;-54
2022/07/11 04:43:20;;;;;;;;;;;;;;;15.67;61.77;101655.97;5061319;28;19956;-51
2022/07/11 04:45:45;;;;;;;;;;;;;;;15.71;61.82;101653.94;5066656;28;19920;-54
2022/07/11 04:48:10;;;;;;;;;;;;;;;15.75;61.62;101659.91;5070553;28;20363;-54
2022/07/11 04:50:36;;;;;;;;;;;;;;;15.77;61.68;101664.19;5063429;28;20400;-52
2022/07/11 04:53:01;;;;;;;;;;;;;;;15.78;61.88;101655.28;5066683;28;20287;-51
2022/07/11 04:55:26;;;;;;;;;;;;;;;15.82;61.79;101656.75;5066798;28;19932;-51
2022/07/11 04:57:52;;;;;;;;;;;;;;;15.85;61.88;101661.06;5074959;28;19928;-51
2022/07/11 05:00:18;;;;;;;;;;;;;;;15.89;61.88;101667.00;5057255;28;20288;-51
2022/07/11 05:02:43;;;;;;;;;;;;;;;15.93;61.71;101666.69;5076839;28;19920;-52
2022/07/11 05:05:09;;;;;;;;;;;;;;;15.96;61.90;101668.28;5068183;28;19939;-52
2022/07/11 05:07:34;;;;;;;;;;;;;;;15.99;61.86;101668.09;5062667;28;19920;-51
2022/07/11 05:09:59;;;;;;;;;;;;;;;16.03;61.70;101671.41;5066886;28;19964;-53
2022/07/11 05:12:25;;;;;;;;;;;;;;;16.04;61.90;101679.25;5070618;28;19921;-51
2022/07/11 05:14:50;;;;;;;;;;;;;;;16.03;61.99;101690.84;5071540;28;20363;-51
2022/07/11 05:17:15;;;;;;;;;;;;;;;16.03;62.02;101682.03;5067852;28;20011;-54
2022/07/11 05:19:41;;;;;;;;;;;;;;;16.05;61.88;101678.31;5067335;28;19924;-52
2022/07/11 05:22:06;;;;;;;;;;;;;;;16.09;61.91;101682.47;5068538;28;19975;-52
2022/07/11 05:24:31;;;;;;;;;;;;;;;16.14;61.89;101690.13;5067660;28;19920;-51
2022/07/11 05:26:57;;;;;;;;;;;;;;;16.16;61.82;101690.88;5064231;28;19924;-51
2022/07/11 05:29:22;;;;;;;;;;;;;;;16.23;61.71;101712.56;5064784;28;20400;-51
2022/07/11 05:31:50;;;;;;;;;;;;;;;16.25;61.71;101690.25;5065729;28;20390;-54
2022/07/11 05:34:18;;;;;;;;;;;;;;;16.27;61.78;101688.34;5062896;28;19931;-51
2022/07/11 05:36:44;;;;;;;;;;;;;;;16.30;61.60;101687.28;5070103;28;19923;-51
2022/07/11 05:39:09;;;;;;;;;;;;;;;16.33;61.71;101687.09;5068654;28;19925;-51
2022/07/11 05:41:34;;;;;;;;;;;;;;;16.35;61.79;101694.94;5063093;28;19916;-52
2022/07/11 05:44:00;;;;;;;;;;;;;;;16.36;61.65;101691.34;5069393;28;20054;-51
2022/07/11 05:46:25;;;;;;;;;;;;;;;16.39;61.73;101697.31;5066384;28;19950;-51
2022/07/11 05:48:50;;;;;;;;;;;;;;;16.44;61.49;101697.84;5071091;28;20007;-53
2022/07/11 05:51:18;;;;;;;;;;;;;;;16.49;61.69;101696.69;5066346;28;19974;-51
2022/07/11 05:53:43;;;;;;;;;;;;;;;16.56;61.54;101708.63;5070396;28;20033;-51
2022/07/11 05:56:09;;;;;;;;;;;;;;;16.61;61.42;101706.47;5063852;28;20397;-52
2022/07/11 05:58:34;;;;;;;;;;;;;;;16.67;61.40;101710.50;5067615;28;19921;-51
2022/07/11 06:00:59;;;;;;;;;;;;;;;16.71;61.41;101712.84;5080608;22;20409;-59
2022/07/11 06:03:25;;;;;;;;;;;;;;;16.76;61.12;101700.09;5062785;28;19970;-62
2022/07/11 06:05:50;;;;;;;;;;;;;;;16.82;61.05;101703.31;5064165;28;19917;-62
2022/07/11 06:10:59;;;;;;;;;;;;;;;16.95;60.60;101712.16;5056922;28;19975;-62
2022/07/11 06:13:24;;;;;;;;;;;;;;;17.00;60.85;101712.69;5043810;28;19917;-59
2022/07/11 06:15:50;;;;;;;;;;;;;;;17.04;60.50;101708.84;5047617;28;19917;-62
2022/07/11 06:18:15;;;;;;;;;;;;;;;17.08;60.42;101705.97;5047656;28;19924;-60
2022/07/11 06:20:40;;;;;;;;;;;;;;;17.10;60.27;101707.56;5048430;28;19920;-59
2022/07/11 06:23:06;;;;;;;;;;;;;;;17.14;60.14;101705.56;5047129;28;19925;-62
2022/07/11 06:25:31;;;;;;;;;;;;;;;17.16;60.18;101707.16;5048377;28;19967;-62
2022/07/11 06:27:57;;;;;;;;;;;;;;;17.20;60.04;101707.78;5050515;28;19928;-62
2022/07/11 06:30:22;;;;;;;;;;;;;;;17.26;59.76;101701.16;5043705;28;19917;-62
2022/07/11 06:32:47;;;;;;;;;;;;;;;17.32;59.75;101714.88;5046531;28;19921;-59
2022/07/11 06:35:13;;;;;;;;;;;;;;;17.38;59.58;101721.59;5053412;28;20349;-60
2022/07/11 06:37:38;;;;;;;;;;;;;;;17.43;59.38;101719.44;5046998;28;19921;-60
2022/07/11 06:40:09;;;;;;;;;;;;;;;17.48;59.43;101719.97;5046920;28;19928;-61
2022/07/11 06:42:35;;;;;;;;;;;;;;;17.54;59.20;101720.50;5060940;28;19931;-61
2022/07/11 06:45:00;;;;;;;;;;;;;;;17.59;58.95;101727.19;5052158;28;19917;-60
2022/07/11 06:47:26;;;;;;;;;;;;;;;17.64;58.85;101735.66;5053245;28;19925;-62
2022/07/11 06:49:51;;;;;;;;;;;;;;;17.67;58.96;101727.47;5048911;28;19953;-62
2022/07/11 06:52:16;;;;;;;;;;;;;;;17.74;58.81;101727.88;5049682;28;20031;-61
2022/07/11 06:54:42;;;;;;;;;;;;;;;17.84;58.73;101720.06;5050613;28;19925;-61
2022/07/11 06:57:07;;;;;;;;;;;;;;;17.91;58.43;101724.00;5046581;28;19975;-60
2022/07/11 06:59:32;;;;;;;;;;;;;;;17.93;58.36;101732.69;5053839;28;19931;-59
2022/07/11 07:01:58;;;;;;;;;;;;;;;17.95;58.42;101741.44;5052664;28;19921;-59
2022/07/11 07:04:23;;;;;;;;;;;;;;;18.00;58.34;101729.63;5055973;28;19920;-58
2022/07/11 07:06:49;;;;;;;;;;;;;;;18.05;58.17;101740.81;5047540;28;20008;-60
2022/07/11 07:09:14;;;;;;;;;;;;;;;18.10;58.08;101741.28;5050088;28;19920;-62
2022/07/11 07:11:39;;;;;;;;;;;;;;;18.17;58.14;101734.56;5052456;28;20284;-61
2022/07/11 07:14:05;;;;;;;;;;;;;;;18.26;57.95;101741.84;5053089;28;19921;-62
2022/07/11 07:16:30;;;;;;;;;;;;;;;18.30;57.66;101736.31;5045246;28;20011;-59
2022/07/11 07:18:56;;;;;;;;;;;;;;;18.34;57.70;101730.63;5052882;28;19929;-60
2022/07/11 07:21:21;;;;;;;;;;;;;;;18.39;57.38;101733.81;5052160;28;19917;-59
2022/07/11 07:23:46;;;;;;;;;;;;;;;18.42;57.45;101736.25;5044894;28;19979;-61
2022/07/11 07:26:12;;;;;;;;;;;;;;;18.46;57.33;101731.53;5055280;28;19962;-61
2022/07/11 07:28:38;;;;;;;;;;;;;;;18.48;57.22;101737.59;5054812;28;20295;-59
2022/07/11 07:31:04;;;;;;;;;;;;;;;18.54;57.00;101750.44;5051174;28;19921;-58
2022/07/11 07:33:29;;;;;;;;;;;;;;;18.57;56.75;101736.88;5051280;28;19916;-60
2022/07/11 07:35:54;;;;;;;;;;;;;;;18.63;56.94;101740.06;5045138;28;19928;-59
2022/07/11 07:38:20;;;;;;;;;;;;;;;18.68;56.76;101735.22;5046570;28;20371;-60
2022/07/11 07:40:45;;;;;;;;;;;;;;;18.72;56.00;101734.00;5042765;28;20544;-59
2022/07/11 07:43:10;;;;;;;;;;;;;;;18.74;55.99;101737.41;5054060;28;19954;-60
2022/07/11 07:45:36;;;;;;;;;;;;;;;18.80;55.89;101744.94;5047426;28;19940;-61
2022/07/11 07:48:01;;;;;;;;;;;;;;;18.81;55.68;101738.66;5050637;28;19921;-61
2022/07/11 07:50:26;;;;;;;;;;;;;;;18.83;55.79;101731.34;5050435;28;19925;-58
2022/07/11 07:52:52;;;;;;;;;;;;;;;18.89;55.48;101736.22;5048196;28;19929;-59
2022/07/11 07:55:18;;;;;;;;;;;;;;;18.91;55.53;101736.09;5059137;28;19925;-60
2022/07/11 07:57:43;;;;;;;;;;;;;;;18.97;55.67;101730.31;5049662;28;19921;-61
2022/07/11 08:02:53;;;;;;;;;;;;;;;19.08;54.81;101729.50;5060032;28;19928;-61
2022/07/11 08:05:19;;;;;;;;;;;;;;;19.13;54.92;101737.13;5045885;28;19920;-58
2022/07/11 08:07:44;;;;;;;;;;;;;;;19.15;54.76;101736.03;5050183;28;19916;-59
2022/07/11 08:10:09;;;;;;;;;;;;;;;19.20;54.90;101738.34;5053233;28;19999;-62
2022/07/11 08:12:35;;;;;;;;;;;;;;;19.24;54.34;101734.44;5045166;28;19968;-57
2022/07/11 08:15:00;;;;;;;;;;;;;;;19.29;54.55;101732.28;5051357;28;20397;-60
2022/07/11 08:17:25;;;;;;;;;;;;;;;19.34;54.25;101739.91;5046375;28;20306;-58
2022/07/11 08:19:51;;;;;;;;;;;;;;;19.38;54.29;101733.38;5047888;28;20380;-62
2022/07/11 08:22:16;;;;;;;;;;;;;;;19.43;54.01;101723.19;5051755;28;19928;-58
2022/07/11 08:24:41;;;;;;;;;;;;;;;19.47;53.79;101729.94;5050726;28;20261;-58
2022/07/11 08:27:07;;;;;;;;;;;;;;;19.50;53.92;101732.38;5047252;28;19927;-58
2022/07/11 08:29:32;;;;;;;;;;;;;;;19.56;53.52;101732.88;5049384;28;19935;-58
2022/07/11 08:31:57;;;;;;;;;;;;;;;19.60;53.39;101728.97;5050100;28;19921;-61
2022/07/11 08:34:22;;;;;;;;;;;;;;;19.66;53.23;101731.16;5046522;28;19979;-61
2022/07/11 08:36:48;;;;;;;;;;;;;;;19.68;52.88;101723.88;5047325;28;20023;-59
2022/07/11 08:39:13;;;;;;;;;;;;;;;19.69;52.81;101728.22;5046761;28;19943;-58
2022/07/11 08:41:42;;;;;;;;;;;;;;;19.69;52.39;101727.38;5041211;28;19928;-58
2022/07/11 08:44:08;;;;;;;;;;;;;;;19.67;52.12;101730.19;5048590;28;19970;-58
2022/07/11 08:46:33;;;;;;;;;;;;;;;19.62;51.84;101727.03;5044140;28;19968;-59
2022/07/11 08:48:59;;;;;;;;;;;;;;;19.59;52.29;101732.59;5055746;28;19923;-61
2022/07/11 08:51:27;;;;;;;;;;;;;;;19.59;52.18;101729.94;5048470;28;19921;-60
2022/07/11 08:53:52;;;;;;;;;;;;;;;19.58;52.41;101730.94;5056428;28;19916;-61
2022/07/11 08:56:20;;;;;;;;;;;;;;;19.57;52.44;101738.06;5049290;28;19924;-63
2022/07/11 08:58:46;;;;;;;;;;;;;;;19.56;52.59;101739.03;5048723;28;19923;-63
2022/07/11 09:01:14;;;;;;;;;;;;;;;19.56;52.63;101738.22;5051968;28;19921;-62
2022/07/11 09:03:40;;;;;;;;;;;;;;;19.58;52.85;101744.28;5046383;28;19920;-62
2022/07/11 09:06:06;;;;;;;;;;;;;;;19.61;52.63;101736.88;5045503;28;19921;-61
2022/07/11 09:08:31;;;;;;;;;;;;;;;19.62;52.45;101743.03;5047727;28;20319;-62
2022/07/11 09:10:57;;;;;;;;;;;;;;;19.64;52.56;101746.44;5046271;28;19948;-58
2022/07/11 09:13:27;;;;;;;;;;;;;;;19.68;52.50;101737.22;5050190;28;20326;-59
2022/07/11 09:15:59;;;;;;;;;;;;;;;19.75;52.25;101743.75;5046149;28;19972;-62
2022/07/11 09:18:25;;;;;;;;;;;;;;;19.80;51.94;101738.06;5045503;28;19929;-60
2022/07/11 09:26:31;;;;;;;;;;;;;;;19.82;51.64;101744.09;5051018;28;19928;-61
2022/07/11 09:29:03;;;;;;;;;;;;;;;19.80;51.36;101746.06;5052304;28;19927;-58
2022/07/11 09:31:29;;;;;;;;;;;;;;;19.77;51.54;101746.31;5056390;28;20284;-58
2022/07/11 09:33:58;;;;;;;;;;;;;;;19.77;51.47;101749.81;5054581;28;19966;-59
2022/07/11 09:36:34;;;;;;;;;;;;;;;19.76;51.51;101744.59;5053319;28;19921;-61
2022/07/11 09:39:01;;;;;;;;;;;;;;;19.76;51.47;101742.75;5040745;28;19952;-61
2022/07/11 09:41:26;;;;;;;;;;;;;;;19.81;51.44;101737.06;5041100;28;19916;-61
2022/07/11 09:43:51;;;;;;;;;;;;;;;19.89;51.51;101780.06;5045730;28;20535;-60
2022/07/11 09:46:24;;;;;;;;;;;;;;;19.96;50.91;101743.00;5047101;28;19921;-61
2022/07/11 09:48:50;;;;;;;;;;;;;;;20.03;50.83;101730.84;5056230;28;19916;-59
2022/07/11 09:51:19;;;;;;;;;;;;;;;20.06;50.38;101738.59;5046265;28;19962;-62
2022/07/11 09:53:55;;;;;;;;;;;;;;;20.07;50.48;101736.78;5044566;28;20106;-62
2022/07/11 09:56:24;;;;;;;;;;;;;;;20.08;50.25;101743.81;5046788;28;19944;-63
2022/07/11 09:58:59;;;;;;;;;;;;;;;20.04;50.11;101769.91;5040828;28;19963;-62
2022/07/11 10:01:24;;;;;;;;;;;;;;;20.00;49.97;101747.13;5046695;28;19916;-63
2022/07/11 10:03:50;;;;;;;;;;;;;;;19.94;50.04;101758.31;5048485;28;19963;-61
2022/07/11 10:06:15;;;;;;;;;;;;;;;19.90;50.60;101751.50;5048470;28;19917;-59
2022/07/11 10:08:40;;;;;;;;;;;;;;;19.83;50.79;101752.97;5035448;28;19927;-61
2022/07/11 10:11:06;;;;;;;;;;;;;;;19.75;51.13;101754.41;5039185;28;19925;-58
2022/07/11 10:13:32;;;;;;;;;;;;;;;19.69;51.62;101754.94;5034277;28;19946;-57
2022/07/11 10:15:58;;;;;;;;;;;;;;;19.67;52.06;101751.53;5035356;28;20299;-61
2022/07/11 10:18:36;;;;;;;;;;;;;;;19.67;51.92;101758.69;5040165;28;19916;-61
2022/07/11 10:21:07;;;;;;;;;;;;;;;19.68;52.39;101757.72;5041742;28;19920;-64
2022/07/11 10:23:35;;;;;;;;;;;;;;;19.72;51.91;101753.81;5045654;28;19964;-61
2022/07/11 10:26:07;;;;;;;;;;;;;;;19.80;51.76;101751.41;5054933;28;19920;-59
2022/07/11 10:28:32;;;;;;;;;;;;;;;19.92;51.40;101754.91;5052187;28;19912;-57
2022/07/11 10:31:00;;;;;;;;;;;;;;;20.02;50.94;101761.22;5055906;28;19920;-62
2022/07/11 10:33:26;;;;;;;;;;;;;;;20.06;50.18;101762.63;5052292;28;19912;-59
2022/07/11 10:35:53;;;;;;;;;;;;;;;20.00;50.84;101797.00;5049881;28;20563;-61
2022/07/11 10:38:18;;;;;;;;;;;;;;;19.87;51.40;101782.00;5057886;28;19925;-61
2022/07/11 10:40:50;;;;;;;;;;;;;;;19.70;52.23;101779.78;5044916;28;19998;-63
2022/07/11 10:43:36;;;;;;;;;;;;;;;19.55;52.64;101784.56;5045142;28;19916;-62
2022/07/11 10:46:04;;;;;;;;;;;;;;;19.44;52.95;101772.06;5050148;28;19917;-62
2022/07/11 10:48:30;;;;;;;;;;;;;;;19.40;53.13;101784.81;5049871;28;19913;-62
2022/07/11 10:51:09;;;;;;;;;;;;;;;19.40;53.46;101775.94;5052854;28;21137;-61
2022/07/11 10:53:40;;;;;;;;;;;;;;;19.43;53.33;101776.56;5057704;28;19986;-61
2022/07/11 10:56:06;;;;;;;;;;;;;;;19.49;53.51;101776.06;5054264;28;19917;-59
2022/07/11 10:58:31;;;;;;;;;;;;;;;19.59;53.14;101778.84;5053784;28;19938;-59
2022/07/11 11:01:16;;;;;;;;;;;;;;;19.69;53.00;101770.09;5053157;28;19928;-63
2022/07/11 11:03:42;;;;;;;;;;;;;;;19.86;53.09;101774.09;5046076;28;19925;-63
2022/07/11 11:06:07;;;;;;;;;;;;;;;20.01;52.48;101775.53;5046807;28;20540;-62
2022/07/11 11:08:36;;;;;;;;;;;;;;;20.15;51.93;101776.22;5046726;28;19921;-60
2022/07/11 11:11:01;;;;;;;;;;;;;;;20.30;50.96;101795.47;5043398;28;19916;-62
2022/07/11 11:13:27;;;;;;;;;;;;;;;20.33;50.41;101785.41;5043558;28;20447;-61
2022/07/11 11:15:52;;;;;;;;;;;;;;;20.35;49.92;101788.75;5036724;28;19948;-61
2022/07/11 11:18:23;;;;;;;;;;;;;;;20.34;49.50;101779.09;5043793;28;19943;-62
2022/07/11 11:21:01;;;;;;;;;;;;;;;20.37;49.90;101776.13;5041144;28;19950;-57
2022/07/11 11:23:29;;;;;;;;;;;;;;;20.41;49.84;101790.09;5046534;28;19921;-57
2022/07/11 11:25:54;;;;;;;;;;;;;;;20.39;49.32;101789.38;5043443;28;19936;-57
2022/07/11 11:28:22;;;;;;;;;;;;;;;20.34;49.28;101787.09;5043311;28;19917;-57
2022/07/11 11:30:54;;;;;;;;;;;;;;;20.28;48.69;101797.41;5047857;28;19924;-58
2022/07/11 11:33:20;;;;;;;;;;;;;;;20.18;48.38;101814.22;5026578;28;20390;-60
2022/07/11 11:35:45;;;;;;;;;;;;;;;20.08;48.34;101794.59;5037853;28;19924;-62
2022/07/11 11:38:11;;;;;;;;;;;;;;;19.98;48.46;101802.50;5048508;28;19928;-60
2022/07/11 11:40:36;;;;;;;;;;;;;;;19.96;48.64;101804.44;5036577;28;19929;-58
2022/07/11 11:43:01;;;;;;;;;;;;;;;19.95;48.72;101794.72;5035258;28;19921;-58
2022/07/11 11:45:27;;;;;;;;;;;;;;;19.98;48.75;101801.63;5036399;28;19921;-61
2022/07/11 11:47:52;;;;;;;;;;;;;;;20.03;48.75;101788.75;5031657;28;19929;-61
2022/07/11 11:50:17;;;;;;;;;;;;;;;20.08;48.63;101787.41;5021399;28;19925;-58
2022/07/11 11:52:44;;;;;;;;;;;;;;;20.18;48.60;101781.31;5044356;28;20043;-62
2022/07/11 11:55:10;;;;;;;;;;;;;;;20.27;48.38;101791.25;5046206;28;19924;-59
2022/07/11 11:57:36;;;;;;;;;;;;;;;20.36;48.36;101790.47;5045904;28;19928;-63
2022/07/11 12:00:01;;;;;;;;;;;;;;;20.45;48.37;101790.69;5048359;28;19925;-59
2022/07/11 12:02:28;;;;;;;;;;;;;;;20.53;48.12;101786.41;5040880;28;19935;-58
2022/07/11 12:04:54;;;;;;;;;;;;;;;20.63;48.16;101789.16;5087037;22;19924;-53
2022/07/11 12:07:24;;;;;;;;;;;;;;;20.69;47.91;101788.63;5066683;28;19932;-52
2022/07/11 12:09:51;;;;;;;;;;;;;;;20.75;48.01;101795.31;5069208;28;19936;-53
2022/07/11 12:15:06;;;;;;;;;;;;;;;20.81;47.64;101783.22;5063819;28;19924;-52
2022/07/11 12:17:32;;;;;;;;;;;;;;;20.88;47.46;101779.06;5062837;28;19925;-52
2022/07/11 12:19:57;;;;;;;;;;;;;;;20.94;47.42;101778.56;5066600;28;19981;-55
2022/07/11 12:22:22;;;;;;;;;;;;;;;20.97;47.54;101783.63;5057729;28;20279;-54
2022/07/11 12:24:49;;;;;;;;;;;;;;;21.01;47.30;101782.38;5058791;28;19923;-53
2022/07/11 12:27:21;;;;;;;;;;;;;;;21.08;47.23;101769.31;5047056;28;19921;-55
2022/07/11 12:29:55;;;;;;;;;;;;;;;21.13;47.07;101774.28;5062357;28;19920;-55
2022/07/11 12:32:24;;;;;;;;;;;;;;;21.14;46.62;101775.97;5058488;28;19977;-56
2022/07/11 12:34:49;;;;;;;;;;;;;;;21.16;46.87;101780.22;5059992;28;20074;-55
2022/07/11 12:37:21;;;;;;;;;;;;;;;21.17;46.71;101781.06;5061160;28;20423;-56
2022/07/11 12:39:54;;;;;;;;;;;;;;;21.15;46.02;101783.88;5064863;28;19967;-55
2022/07/11 12:42:26;;;;;;;;;;;;;;;21.14;46.21;101779.50;5056875;28;19932;-56
2022/07/11 12:45:17;;;;;;;;;;;;;;;21.14;45.46;101782.19;5063582;28;19916;-53
2022/07/11 12:47:53;;;;;;;;;;;;;;;21.15;45.07;101781.22;5058216;28;19928;-54
2022/07/11 12:50:26;;;;;;;;;;;;;;;21.22;45.45;101773.50;5066946;28;19931;-56